Time;durP1;ratioP1;P1;durP2;ratioP2;P2;SDS_P1;SDS_P2;PMS_P1;PMS_P2;Temp;Humidity;BMP_temperature;BMP_pressure;BME280_temperature;BME280_humidity;BME280_pressure;Samples;Min_cycle;Max_cycle;Signal;HPM_P1;HPM_P2
2023/04/05 00:01:25;;;;;;;6.87;5.20;;;;;;;;;;5049855;28;20504;-82
2023/04/05 00:03:53;;;;;;;6.75;5.10;;;;;;;;;;5053900;28;20922;-81
2023/04/05 00:06:20;;;;;;;9.80;6.10;;;;;;;;;;5069278;28;20922;-81
2023/04/05 00:08:48;;;;;;;7.10;5.20;;;;;;;;;;5064060;28;20414;-80
2023/04/05 00:11:15;;;;;;;7.53;4.97;;;;;;;;;;5065764;28;20423;-79
2023/04/05 00:13:41;;;;;;;9.20;5.37;;;;;;;;;;5062728;28;20794;-79
2023/04/05 00:16:09;;;;;;;7.53;5.43;;;;;;;;;;5064932;28;20442;-81
2023/04/05 00:18:37;;;;;;;8.40;5.27;;;;;;;;;;5068351;28;20538;-80
2023/04/05 00:21:03;;;;;;;9.20;5.40;;;;;;;;;;5067003;28;20431;-79
2023/04/05 00:23:36;;;;;;;9.25;5.88;;;;;;;;;;5062453;28;20916;-80
2023/04/05 00:26:02;;;;;;;7.32;5.07;;;;;;;;;;5064950;28;20426;-80
2023/04/05 00:28:29;;;;;;;8.37;5.10;;;;;;;;;;5062864;28;20438;-80
2023/04/05 00:30:55;;;;;;;8.50;5.18;;;;;;;;;;5066006;28;20425;-79
2023/04/05 00:33:23;;;;;;;6.57;4.80;;;;;;;;;;5065815;28;20429;-80
2023/04/05 00:35:49;;;;;;;6.47;4.33;;;;;;;;;;5066531;28;20432;-79
2023/04/05 00:38:16;;;;;;;9.15;4.70;;;;;;;;;;5064229;28;20427;-80
2023/04/05 00:40:44;;;;;;;6.68;4.80;;;;;;;;;;5064941;28;20425;-80
2023/04/05 00:43:12;;;;;;;6.75;5.38;;;;;;;;;;5067472;28;21347;-80
2023/04/05 00:45:39;;;;;;;9.25;5.35;;;;;;;;;;5068198;28;20457;-79
2023/04/05 00:48:05;;;;;;;10.50;5.40;;;;;;;;;;5068059;28;20458;-81
2023/04/05 00:50:33;;;;;;;8.50;5.70;;;;;;;;;;5066527;28;20428;-79
2023/04/05 00:53:00;;;;;;;8.05;5.75;;;;;;;;;;5069329;28;20487;-81
2023/04/05 00:55:26;;;;;;;7.35;5.47;;;;;;;;;;5065653;28;20450;-80
2023/04/05 00:57:54;;;;;;;8.10;5.63;;;;;;;;;;5066519;28;20436;-81
2023/04/05 01:00:21;;;;;;;8.10;5.83;;;;;;;;;;5050296;28;20478;-80
2023/04/05 01:02:50;;;;;;;8.15;5.50;;;;;;;;;;5050068;28;20423;-80
2023/04/05 01:05:24;;;;;;;9.57;6.00;;;;;;;;;;5067808;28;20705;-80
2023/04/05 01:07:57;;;;;;;8.35;5.90;;;;;;;;;;5033927;28;20422;-80
2023/04/05 01:10:28;;;;;;;8.20;5.60;;;;;;;;;;5063285;28;20421;-80
2023/04/05 01:12:54;;;;;;;7.18;5.00;;;;;;;;;;5070919;28;20754;-80
2023/04/05 01:15:21;;;;;;;8.15;4.95;;;;;;;;;;5064035;28;20417;-81
2023/04/05 01:17:47;;;;;;;6.53;4.78;;;;;;;;;;5066706;28;20427;-80
2023/04/05 01:20:14;;;;;;;8.38;5.32;;;;;;;;;;5068243;28;20421;-80
2023/04/05 01:22:59;;;;;;;8.73;5.65;;;;;;;;;;5070553;28;20427;-81
2023/04/05 01:25:44;;;;;;;6.63;5.22;;;;;;;;;;5053420;28;20431;-80
2023/04/05 01:28:18;;;;;;;7.20;5.40;;;;;;;;;;5061807;28;20424;-80
2023/04/05 01:30:49;;;;;;;6.78;4.90;;;;;;;;;;5063644;28;20423;-80
2023/04/05 01:33:20;;;;;;;8.75;5.03;;;;;;;;;;5065710;28;20442;-80
2023/04/05 01:35:50;;;;;;;6.55;5.30;;;;;;;;;;5065630;28;20422;-79
2023/04/05 01:38:18;;;;;;;7.70;4.85;;;;;;;;;;5065951;28;20437;-79
2023/04/05 01:40:45;;;;;;;7.38;5.53;;;;;;;;;;5064588;28;20426;-80
2023/04/05 01:43:14;;;;;;;9.15;5.55;;;;;;;;;;5030863;28;20756;-80
2023/04/05 01:45:41;;;;;;;8.15;5.43;;;;;;;;;;5060486;28;20498;-79
2023/04/05 01:48:09;;;;;;;6.05;5.20;;;;;;;;;;5064674;28;20425;-80
2023/04/05 01:50:35;;;;;;;7.90;5.53;;;;;;;;;;5067574;28;20418;-79
2023/04/05 01:53:02;;;;;;;7.65;5.38;;;;;;;;;;5067000;28;20431;-79
2023/04/05 01:55:28;;;;;;;9.63;5.63;;;;;;;;;;5063622;28;20419;-80
2023/04/05 01:57:55;;;;;;;6.70;5.40;;;;;;;;;;5066232;28;20904;-80
2023/04/05 02:00:22;;;;;;;6.63;5.13;;;;;;;;;;5063842;28;20486;-80
2023/04/05 02:02:49;;;;;;;10.80;6.07;;;;;;;;;;5049227;28;20420;-80
2023/04/05 02:05:17;;;;;;;8.32;6.00;;;;;;;;;;5065144;28;20997;-79
2023/04/05 02:07:43;;;;;;;7.35;5.18;;;;;;;;;;5065910;28;20425;-80
2023/04/05 02:10:10;;;;;;;8.00;5.38;;;;;;;;;;5064412;28;20420;-80
2023/04/05 02:12:36;;;;;;;8.35;6.18;;;;;;;;;;5069830;28;20458;-81
2023/04/05 02:15:03;;;;;;;9.25;5.88;;;;;;;;;;5064252;28;20427;-80
2023/04/05 02:17:32;;;;;;;6.45;5.28;;;;;;;;;;5068806;28;20802;-80
2023/04/05 02:20:01;;;;;;;7.05;5.35;;;;;;;;;;5071244;28;20459;-80
2023/04/05 02:22:28;;;;;;;7.72;5.65;;;;;;;;;;5074471;28;20462;-80
2023/04/05 02:24:55;;;;;;;8.35;6.07;;;;;;;;;;5066495;28;20427;-80
2023/04/05 02:27:21;;;;;;;7.43;5.30;;;;;;;;;;5052854;28;20789;-80
2023/04/05 02:29:47;;;;;;;10.30;5.50;;;;;;;;;;5068047;28;20425;-80
2023/04/05 02:32:14;;;;;;;9.35;5.88;;;;;;;;;;5067309;28;20438;-80
2023/04/05 02:34:40;;;;;;;8.10;5.88;;;;;;;;;;5055072;28;20452;-80
2023/04/05 02:37:07;;;;;;;6.95;5.63;;;;;;;;;;5074164;28;20427;-80
2023/04/05 02:39:36;;;;;;;8.60;5.55;;;;;;;;;;5073300;28;21004;-79
2023/04/05 02:42:03;;;;;;;7.15;5.50;;;;;;;;;;5070705;28;20800;-79
2023/04/05 02:44:29;;;;;;;7.20;5.20;;;;;;;;;;5070037;28;20423;-80
2023/04/05 02:46:55;;;;;;;7.35;5.40;;;;;;;;;;5066398;28;20871;-79
2023/04/05 02:49:22;;;;;;;6.40;5.40;;;;;;;;;;5068453;28;20785;-79
2023/04/05 02:51:48;;;;;;;7.80;5.13;;;;;;;;;;5066347;28;20433;-79
2023/04/05 02:54:16;;;;;;;7.68;5.25;;;;;;;;;;5069490;28;20404;-80
2023/04/05 02:56:43;;;;;;;8.40;6.53;;;;;;;;;;5069302;28;20427;-79
2023/04/05 02:59:10;;;;;;;10.32;5.40;;;;;;;;;;5065372;28;20431;-79
2023/04/05 03:01:36;;;;;;;7.47;5.10;;;;;;;;;;5069894;28;20425;-80
2023/04/05 03:04:03;;;;;;;8.65;6.20;;;;;;;;;;5066851;28;20429;-79
2023/04/05 03:06:30;;;;;;;7.88;5.80;;;;;;;;;;5050072;28;20471;-79
2023/04/05 03:08:56;;;;;;;7.45;5.85;;;;;;;;;;5068943;28;20918;-79
2023/04/05 03:11:23;;;;;;;9.40;5.68;;;;;;;;;;5069215;28;20459;-79
2023/04/05 03:13:50;;;;;;;8.20;5.45;;;;;;;;;;5068727;28;20424;-79
2023/04/05 03:16:18;;;;;;;9.00;5.68;;;;;;;;;;5047019;28;20499;-80
2023/04/05 03:18:45;;;;;;;9.45;5.57;;;;;;;;;;5070771;28;20433;-80
2023/04/05 03:21:12;;;;;;;5.88;5.10;;;;;;;;;;5068020;28;20479;-79
2023/04/05 03:23:38;;;;;;;6.72;5.47;;;;;;;;;;5070548;28;20800;-80
2023/04/05 03:26:05;;;;;;;8.05;5.90;;;;;;;;;;5067915;28;20429;-79
2023/04/05 03:28:32;;;;;;;8.00;5.65;;;;;;;;;;5066899;28;20435;-79
2023/04/05 03:30:59;;;;;;;7.63;5.32;;;;;;;;;;5066714;28;20942;-79
2023/04/05 03:33:26;;;;;;;7.47;5.53;;;;;;;;;;5067622;28;20493;-80
2023/04/05 03:35:52;;;;;;;7.32;6.10;;;;;;;;;;5065591;28;20438;-79
2023/04/05 03:38:18;;;;;;;7.60;5.30;;;;;;;;;;5066672;28;20924;-79
2023/04/05 03:40:45;;;;;;;8.98;5.43;;;;;;;;;;5066794;28;20416;-79
2023/04/05 03:43:13;;;;;;;8.23;5.45;;;;;;;;;;5068255;28;20417;-79
2023/04/05 03:45:39;;;;;;;7.05;5.75;;;;;;;;;;5069756;28;20415;-79
2023/04/05 03:48:07;;;;;;;9.85;6.15;;;;;;;;;;5047585;28;20409;-79
2023/04/05 03:50:33;;;;;;;8.00;5.55;;;;;;;;;;5060473;28;20449;-79
2023/04/05 03:53:00;;;;;;;9.85;5.45;;;;;;;;;;5068184;28;20424;-79
2023/04/05 03:55:27;;;;;;;8.90;5.75;;;;;;;;;;5047083;28;20479;-79
2023/04/05 03:57:53;;;;;;;8.80;6.15;;;;;;;;;;5069214;28;20431;-79
2023/04/05 04:00:22;;;;;;;6.85;5.55;;;;;;;;;;5067853;28;20435;-79
2023/04/05 04:02:51;;;;;;;8.73;6.00;;;;;;;;;;5064413;28;20425;-79
2023/04/05 04:05:19;;;;;;;9.90;6.73;;;;;;;;;;5067595;28;20514;-79
2023/04/05 04:07:46;;;;;;;10.18;6.25;;;;;;;;;;5064860;28;20578;-79
2023/04/05 04:10:14;;;;;;;8.70;6.60;;;;;;;;;;5065863;28;20421;-79
2023/04/05 04:12:40;;;;;;;11.15;6.35;;;;;;;;;;5064296;28;20447;-79
2023/04/05 04:15:07;;;;;;;6.43;5.72;;;;;;;;;;5068569;28;20499;-79
2023/04/05 04:17:35;;;;;;;9.48;6.28;;;;;;;;;;5067735;28;20436;-79
2023/04/05 04:20:06;;;;;;;7.87;6.30;;;;;;;;;;5066936;28;20421;-79
2023/04/05 04:22:37;;;;;;;9.38;6.57;;;;;;;;;;5064162;28;20449;-79
2023/04/05 04:25:04;;;;;;;10.13;7.00;;;;;;;;;;5063263;28;20545;-79
2023/04/05 04:27:31;;;;;;;8.68;6.78;;;;;;;;;;5064769;28;20434;-79
2023/04/05 04:30:02;;;;;;;10.80;7.15;;;;;;;;;;5065370;28;20428;-79
2023/04/05 04:32:50;;;;;;;9.82;6.53;;;;;;;;;;5063983;28;20965;-79
2023/04/05 04:35:17;;;;;;;9.70;7.55;;;;;;;;;;5065674;28;20498;-79
2023/04/05 04:37:47;;;;;;;10.13;7.73;;;;;;;;;;5065410;28;20474;-79
2023/04/05 04:40:16;;;;;;;9.80;7.00;;;;;;;;;;5067346;28;20973;-79
2023/04/05 04:42:43;;;;;;;11.43;7.68;;;;;;;;;;5066478;28;20432;-79
2023/04/05 04:45:11;;;;;;;9.38;6.30;;;;;;;;;;5066131;28;20412;-79
2023/04/05 04:47:37;;;;;;;8.35;6.68;;;;;;;;;;5070297;28;20429;-79
2023/04/05 04:50:05;;;;;;;11.55;7.47;;;;;;;;;;5067597;28;20431;-79
2023/04/05 04:52:31;;;;;;;11.40;7.20;;;;;;;;;;5047726;28;20429;-79
2023/04/05 04:55:01;;;;;;;9.77;7.20;;;;;;;;;;5064684;28;20434;-79
2023/04/05 04:57:27;;;;;;;12.03;7.70;;;;;;;;;;5067659;28;20848;-79
2023/04/05 04:59:54;;;;;;;10.60;8.07;;;;;;;;;;5068170;28;20426;-79
2023/04/05 05:02:23;;;;;;;11.37;6.63;;;;;;;;;;5064189;28;20423;-79
2023/04/05 05:04:50;;;;;;;8.02;6.05;;;;;;;;;;5070700;28;20427;-79
2023/04/05 05:07:16;;;;;;;11.07;7.78;;;;;;;;;;5064896;28;20406;-79
2023/04/05 05:09:44;;;;;;;10.02;6.93;;;;;;;;;;5064384;28;20432;-79
2023/04/05 05:12:12;;;;;;;10.23;6.90;;;;;;;;;;5069091;28;20463;-79
2023/04/05 05:14:39;;;;;;;9.07;7.20;;;;;;;;;;5068869;28;20425;-79
2023/04/05 05:17:05;;;;;;;11.65;7.45;;;;;;;;;;5069528;28;20480;-79
2023/04/05 05:19:31;;;;;;;13.03;7.57;;;;;;;;;;5064109;28;20416;-79
2023/04/05 05:21:58;;;;;;;13.23;7.83;;;;;;;;;;5067774;28;20444;-79
2023/04/05 05:24:25;;;;;;;10.73;7.53;;;;;;;;;;5066420;28;20421;-80
2023/04/05 05:26:51;;;;;;;11.68;7.80;;;;;;;;;;5070853;28;20436;-79
2023/04/05 05:29:19;;;;;;;11.37;7.80;;;;;;;;;;5066588;28;20399;-79
2023/04/05 05:31:46;;;;;;;11.63;7.40;;;;;;;;;;5070201;28;20423;-79
2023/04/05 05:34:12;;;;;;;11.07;7.80;;;;;;;;;;5068049;28;20424;-78
2023/04/05 05:36:38;;;;;;;10.70;7.60;;;;;;;;;;5066434;28;20423;-79
2023/04/05 05:39:05;;;;;;;11.25;7.40;;;;;;;;;;5067597;28;20437;-79
2023/04/05 05:41:31;;;;;;;11.98;7.88;;;;;;;;;;5064932;28;20423;-80
2023/04/05 05:43:58;;;;;;;10.25;7.38;;;;;;;;;;5064045;28;20415;-80
2023/04/05 05:46:25;;;;;;;11.52;8.40;;;;;;;;;;5062930;28;20942;-79
2023/04/05 05:48:53;;;;;;;12.77;8.50;;;;;;;;;;5064859;28;20411;-80
2023/04/05 05:51:20;;;;;;;11.30;8.73;;;;;;;;;;5061191;28;20443;-79
2023/04/05 05:53:47;;;;;;;10.68;8.20;;;;;;;;;;5069327;28;20418;-80
2023/04/05 05:56:13;;;;;;;11.82;7.35;;;;;;;;;;5049284;28;20420;-80
2023/04/05 05:58:40;;;;;;;9.60;7.43;;;;;;;;;;5068340;28;20429;-80
2023/04/05 06:01:07;;;;;;;11.80;8.30;;;;;;;;;;5067386;28;20412;-80
2023/04/05 06:03:35;;;;;;;11.77;8.43;;;;;;;;;;5071335;28;20903;-80
2023/04/05 06:06:04;;;;;;;10.95;7.75;;;;;;;;;;5069056;28;20424;-80
2023/04/05 06:08:31;;;;;;;12.00;7.70;;;;;;;;;;5065333;28;20427;-80
2023/04/05 06:10:58;;;;;;;12.55;8.55;;;;;;;;;;5064777;28;20433;-80
2023/04/05 06:13:24;;;;;;;11.25;7.72;;;;;;;;;;5066210;28;20413;-79
2023/04/05 06:15:51;;;;;;;10.70;7.78;;;;;;;;;;5063804;28;20490;-79
2023/04/05 06:18:19;;;;;;;11.88;8.63;;;;;;;;;;5063239;28;20435;-80
2023/04/05 06:20:47;;;;;;;12.23;8.48;;;;;;;;;;5065023;28;20427;-80
2023/04/05 06:23:14;;;;;;;11.27;8.20;;;;;;;;;;5059964;28;20425;-80
2023/04/05 06:25:40;;;;;;;10.10;8.00;;;;;;;;;;5068153;28;20423;-80
2023/04/05 06:28:07;;;;;;;11.40;8.20;;;;;;;;;;5049091;28;20434;-80
2023/04/05 06:30:33;;;;;;;13.07;8.98;;;;;;;;;;5063944;28;20924;-80
2023/04/05 06:33:00;;;;;;;13.82;8.02;;;;;;;;;;5065558;28;20418;-80
2023/04/05 06:35:27;;;;;;;11.07;8.30;;;;;;;;;;5063958;28;20908;-80
2023/04/05 06:37:54;;;;;;;12.18;8.38;;;;;;;;;;5067046;28;20943;-80
2023/04/05 06:40:21;;;;;;;11.38;7.90;;;;;;;;;;5066252;28;20411;-80
2023/04/05 06:42:48;;;;;;;12.52;8.25;;;;;;;;;;5065763;28;20816;-80
2023/04/05 06:45:15;;;;;;;12.13;7.95;;;;;;;;;;5065771;28;20411;-79
2023/04/05 06:47:42;;;;;;;11.50;7.10;;;;;;;;;;5064087;28;20409;-80
2023/04/05 06:50:09;;;;;;;9.98;6.18;;;;;;;;;;5060307;28;20429;-80
2023/04/05 06:52:35;;;;;;;8.00;6.32;;;;;;;;;;5063802;28;20431;-80
2023/04/05 06:55:03;;;;;;;9.52;6.97;;;;;;;;;;5062713;28;20425;-80
2023/04/05 06:57:30;;;;;;;7.43;6.00;;;;;;;;;;5065039;28;20430;-80
2023/04/05 06:59:57;;;;;;;6.75;5.93;;;;;;;;;;5060534;28;20421;-80
2023/04/05 07:02:23;;;;;;;6.95;5.30;;;;;;;;;;5046881;28;20788;-80
2023/04/05 07:04:50;;;;;;;8.68;5.45;;;;;;;;;;5061656;28;20404;-80
2023/04/05 07:07:16;;;;;;;8.07;5.80;;;;;;;;;;5064207;28;20435;-80
2023/04/05 07:09:43;;;;;;;8.23;5.53;;;;;;;;;;5067444;28;20420;-80
2023/04/05 07:12:10;;;;;;;7.60;5.60;;;;;;;;;;5065390;28;20420;-80
2023/04/05 07:14:37;;;;;;;8.32;5.47;;;;;;;;;;5063358;28;20418;-80
2023/04/05 07:17:04;;;;;;;8.33;5.60;;;;;;;;;;5065695;28;20409;-80
2023/04/05 07:19:31;;;;;;;11.90;5.90;;;;;;;;;;5062738;28;20405;-80
2023/04/05 07:21:59;;;;;;;8.68;5.60;;;;;;;;;;5063727;28;20413;-80
2023/04/05 07:24:25;;;;;;;8.20;4.85;;;;;;;;;;5066024;28;20409;-80
2023/04/05 07:26:51;;;;;;;6.65;4.85;;;;;;;;;;5063762;28;20925;-80
2023/04/05 07:29:19;;;;;;;7.63;4.78;;;;;;;;;;5060230;28;20406;-80
2023/04/05 07:31:45;;;;;;;8.13;4.90;;;;;;;;;;5067066;28;20412;-80
2023/04/05 07:34:12;;;;;;;8.45;4.80;;;;;;;;;;5045170;28;20992;-80
2023/04/05 07:36:39;;;;;;;7.20;4.88;;;;;;;;;;5063969;28;20409;-80
2023/04/05 07:39:06;;;;;;;7.47;4.50;;;;;;;;;;5063914;28;20456;-80
2023/04/05 07:41:34;;;;;;;6.20;4.57;;;;;;;;;;5061181;28;20436;-80
2023/04/05 07:44:00;;;;;;;7.88;4.65;;;;;;;;;;5061512;28;20471;-80
2023/04/05 07:46:28;;;;;;;6.47;4.10;;;;;;;;;;5066413;28;20417;-80
2023/04/05 07:48:55;;;;;;;7.20;4.28;;;;;;;;;;5061334;28;20409;-80
2023/04/05 07:51:21;;;;;;;7.35;4.55;;;;;;;;;;5065273;28;20427;-80
2023/04/05 07:53:48;;;;;;;7.45;3.83;;;;;;;;;;5046646;28;20417;-80
2023/04/05 07:56:16;;;;;;;5.68;3.80;;;;;;;;;;5061229;28;20451;-80
2023/04/05 07:58:42;;;;;;;4.72;3.30;;;;;;;;;;5065054;28;20428;-80
2023/04/05 08:01:09;;;;;;;6.32;3.72;;;;;;;;;;5064887;28;20426;-80
2023/04/05 08:03:38;;;;;;;7.18;3.72;;;;;;;;;;5061406;28;20423;-80
2023/04/05 08:06:11;;;;;;;7.47;4.20;;;;;;;;;;5067272;28;20854;-80
2023/04/05 08:08:37;;;;;;;7.22;4.30;;;;;;;;;;5042181;28;20466;-80
2023/04/05 08:11:04;;;;;;;10.15;4.50;;;;;;;;;;5063383;28;20429;-80
2023/04/05 08:13:32;;;;;;;7.65;4.15;;;;;;;;;;5047223;28;20421;-80
2023/04/05 08:15:59;;;;;;;6.30;3.30;;;;;;;;;;5061403;28;20418;-80
2023/04/05 08:18:25;;;;;;;5.27;3.07;;;;;;;;;;5064279;28;20455;-80
2023/04/05 08:20:53;;;;;;;5.72;4.00;;;;;;;;;;5063191;28;20918;-81
2023/04/05 08:23:20;;;;;;;7.13;3.63;;;;;;;;;;5060891;28;20421;-80
2023/04/05 08:25:47;;;;;;;7.18;3.58;;;;;;;;;;5065798;28;20915;-80
2023/04/05 08:28:13;;;;;;;5.32;3.60;;;;;;;;;;5062611;28;20427;-81
2023/04/05 08:30:39;;;;;;;5.65;3.40;;;;;;;;;;5064520;28;20423;-80
2023/04/05 08:33:06;;;;;;;5.18;3.20;;;;;;;;;;5045578;28;20412;-80
2023/04/05 08:35:32;;;;;;;6.90;3.50;;;;;;;;;;5060713;28;20413;-80
2023/04/05 08:38:00;;;;;;;5.82;3.50;;;;;;;;;;5061514;28;20440;-79
2023/04/05 08:40:32;;;;;;;4.82;3.08;;;;;;;;;;5064557;28;20427;-81
2023/04/05 08:43:03;;;;;;;6.03;3.33;;;;;;;;;;5063900;28;20424;-79
2023/04/05 08:45:31;;;;;;;3.77;3.10;;;;;;;;;;5046909;28;20429;-79
2023/04/05 08:47:59;;;;;;;5.97;3.13;;;;;;;;;;5062420;28;20779;-79
2023/04/05 08:50:27;;;;;;;6.00;3.50;;;;;;;;;;5065385;28;20431;-79
2023/04/05 08:52:54;;;;;;;4.30;3.40;;;;;;;;;;5061448;28;20414;-79
2023/04/05 08:55:24;;;;;;;6.00;3.35;;;;;;;;;;5059099;28;21427;-80
2023/04/05 08:57:53;;;;;;;6.13;3.83;;;;;;;;;;5061752;28;20910;-81
2023/04/05 09:00:20;;;;;;;7.05;4.32;;;;;;;;;;5060910;28;20427;-81
2023/04/05 09:02:48;;;;;;;4.70;3.38;;;;;;;;;;5060430;28;20847;-80
2023/04/05 09:05:16;;;;;;;4.00;3.37;;;;;;;;;;5063969;28;20419;-79
2023/04/05 09:07:46;;;;;;;5.65;3.20;;;;;;;;;;5058725;28;20414;-79
2023/04/05 09:10:13;;;;;;;5.25;3.58;;;;;;;;;;5044846;28;20423;-79
2023/04/05 09:12:41;;;;;;;3.70;2.30;;;;;;;;;;5047065;28;20446;-79
2023/04/05 09:15:08;;;;;;;5.07;3.40;;;;;;;;;;5060458;28;20417;-79
2023/04/05 09:17:35;;;;;;;5.88;3.83;;;;;;;;;;5048395;28;20469;-81
2023/04/05 09:20:01;;;;;;;5.40;3.25;;;;;;;;;;5060859;28;20414;-79
2023/04/05 09:22:28;;;;;;;5.38;3.40;;;;;;;;;;5062300;28;20413;-80
2023/04/05 09:24:55;;;;;;;5.78;3.50;;;;;;;;;;5060993;28;20409;-80
2023/04/05 09:27:21;;;;;;;5.22;3.80;;;;;;;;;;5060189;28;20925;-80
2023/04/05 09:29:49;;;;;;;3.70;2.70;;;;;;;;;;5061533;28;20410;-80
2023/04/05 09:32:17;;;;;;;4.68;2.70;;;;;;;;;;5060325;28;20425;-79
2023/04/05 09:34:43;;;;;;;4.80;3.28;;;;;;;;;;5042116;28;20482;-81
2023/04/05 09:37:14;;;;;;;5.32;3.38;;;;;;;;;;5061563;28;20425;-81
2023/04/05 09:39:40;;;;;;;5.53;3.20;;;;;;;;;;5060441;28;20416;-78
2023/04/05 09:42:09;;;;;;;4.53;2.90;;;;;;;;;;5068618;28;20408;-80
2023/04/05 09:44:52;;;;;;;3.90;2.50;;;;;;;;;;5062496;28;20420;-80
2023/04/05 09:47:19;;;;;;;3.42;2.60;;;;;;;;;;5048889;28;20415;-79
2023/04/05 09:49:46;;;;;;;3.38;2.22;;;;;;;;;;5062791;28;20432;-79
2023/04/05 09:52:19;;;;;;;3.38;2.60;;;;;;;;;;5063516;28;20416;-79
2023/04/05 09:54:45;;;;;;;4.03;2.80;;;;;;;;;;5058467;28;20498;-79
2023/04/05 09:57:12;;;;;;;6.70;3.30;;;;;;;;;;5062435;28;20413;-80
2023/04/05 09:59:39;;;;;;;5.28;3.28;;;;;;;;;;5062112;28;20419;-80
2023/04/05 10:02:06;;;;;;;5.07;3.30;;;;;;;;;;5063811;28;20777;-80
2023/04/05 10:04:38;;;;;;;3.28;2.60;;;;;;;;;;5059368;28;20420;-79
2023/04/05 10:07:05;;;;;;;4.30;3.00;;;;;;;;;;5062802;28;20427;-81
2023/04/05 10:09:32;;;;;;;4.70;3.00;;;;;;;;;;5059340;28;20416;-79
2023/04/05 10:11:59;;;;;;;3.83;2.60;;;;;;;;;;5065203;28;20420;-80
2023/04/05 10:14:26;;;;;;;3.45;2.38;;;;;;;;;;5042920;28;20411;-79
2023/04/05 10:16:53;;;;;;;3.90;2.40;;;;;;;;;;5060995;28;20417;-81
2023/04/05 10:19:24;;;;;;;3.17;2.00;;;;;;;;;;5067835;28;20897;-81
2023/04/05 10:21:51;;;;;;;4.30;2.65;;;;;;;;;;5065021;28;20430;-82
2023/04/05 10:24:20;;;;;;;3.88;2.60;;;;;;;;;;5064916;28;20435;-80
2023/04/05 10:26:52;;;;;;;2.78;1.90;;;;;;;;;;5066917;28;20500;-80
2023/04/05 10:29:23;;;;;;;4.78;2.50;;;;;;;;;;5062842;28;20422;-80
2023/04/05 10:31:51;;;;;;;4.22;2.20;;;;;;;;;;5047085;28;20413;-79
2023/04/05 10:34:26;;;;;;;4.90;2.85;;;;;;;;;;5071023;28;20885;-82
2023/04/05 10:36:57;;;;;;;2.40;2.00;;;;;;;;;;5063120;28;20777;-81
2023/04/05 10:39:27;;;;;;;3.20;1.90;;;;;;;;;;5069241;28;20911;-81
2023/04/05 10:41:56;;;;;;;3.28;2.40;;;;;;;;;;5069811;28;20424;-79
2023/04/05 10:44:23;;;;;;;3.22;2.25;;;;;;;;;;5062086;28;20457;-81
2023/04/05 10:46:50;;;;;;;2.67;2.00;;;;;;;;;;5065862;28;20409;-79
2023/04/05 10:49:22;;;;;;;2.75;2.15;;;;;;;;;;5066647;28;20869;-81
2023/04/05 10:51:50;;;;;;;4.47;2.53;;;;;;;;;;5051068;28;20478;-81
2023/04/05 10:54:17;;;;;;;3.70;2.00;;;;;;;;;;5069182;28;20426;-81
2023/04/05 10:56:44;;;;;;;3.95;2.30;;;;;;;;;;5068027;28;20427;-82
2023/04/05 10:59:11;;;;;;;2.50;2.10;;;;;;;;;;5069875;28;20437;-80
2023/04/05 11:01:39;;;;;;;2.75;2.28;;;;;;;;;;5066406;28;20417;-82
2023/04/05 11:04:34;;;;;;;3.72;2.90;;;;;;;;;;5065773;28;20408;-79
2023/04/05 11:07:12;;;;;;;3.38;2.20;;;;;;;;;;5063481;28;20469;-80
2023/04/05 11:09:40;;;;;;;3.47;1.83;;;;;;;;;;5068847;28;20438;-80
2023/04/05 11:12:06;;;;;;;3.72;2.22;;;;;;;;;;5067345;28;20781;-80
2023/04/05 11:14:35;;;;;;;3.40;2.03;;;;;;;;;;5064876;28;20516;-81
2023/04/05 11:17:02;;;;;;;2.58;2.00;;;;;;;;;;5071725;28;20407;-79
2023/04/05 11:19:46;;;;;;;4.70;2.17;;;;;;;;;;5064375;28;20410;-79
2023/04/05 11:22:24;;;;;;;3.45;2.55;;;;;;;;;;5065485;28;20413;-81
2023/04/05 11:24:52;;;;;;;3.92;2.20;;;;;;;;;;5064743;28;20423;-80
2023/04/05 11:27:24;;;;;;;4.20;2.50;;;;;;;;;;5064178;28;20484;-79
2023/04/05 11:29:53;;;;;;;2.50;2.10;;;;;;;;;;5065796;28;20438;-79
2023/04/05 11:32:19;;;;;;;3.50;2.28;;;;;;;;;;5044532;28;20461;-80
2023/04/05 11:34:58;;;;;;;3.28;2.30;;;;;;;;;;5063230;28;20915;-79
2023/04/05 11:37:46;;;;;;;4.60;2.83;;;;;;;;;;5062590;28;20461;-79
2023/04/05 11:40:25;;;;;;;2.60;2.20;;;;;;;;;;5063117;28;20908;-79
2023/04/05 11:42:58;;;;;;;4.57;2.30;;;;;;;;;;5061883;28;20417;-79
2023/04/05 11:45:25;;;;;;;3.10;2.50;;;;;;;;;;5064978;28;20433;-79
2023/04/05 11:47:51;;;;;;;3.03;2.42;;;;;;;;;;5063431;28;20943;-80
2023/04/05 11:50:20;;;;;;;4.35;2.42;;;;;;;;;;5064765;28;20423;-80
2023/04/05 11:53:07;;;;;;;4.17;2.80;;;;;;;;;;5062945;28;20423;-80
2023/04/05 11:55:33;;;;;;;4.75;2.72;;;;;;;;;;5065847;28;20435;-79
2023/04/05 11:58:00;;;;;;;4.70;3.17;;;;;;;;;;5061882;28;20417;-79
2023/04/05 12:00:27;;;;;;;4.00;3.20;;;;;;;;;;5062926;28;20431;-79
2023/04/05 12:02:55;;;;;;;5.63;3.10;;;;;;;;;;5061737;28;20415;-79
2023/04/05 12:05:21;;;;;;;3.83;2.72;;;;;;;;;;5057942;28;20415;-79
2023/04/05 12:07:53;;;;;;;5.18;2.83;;;;;;;;;;5065148;28;20419;-79
2023/04/05 12:10:20;;;;;;;3.13;2.53;;;;;;;;;;5059483;28;20417;-79
2023/04/05 12:12:47;;;;;;;4.82;2.70;;;;;;;;;;5064063;28;20432;-79
2023/04/05 12:15:17;;;;;;;4.70;2.90;;;;;;;;;;5047070;28;20414;-79
2023/04/05 12:17:45;;;;;;;3.70;2.60;;;;;;;;;;5064522;28;20443;-79
2023/04/05 12:20:12;;;;;;;3.97;2.60;;;;;;;;;;5059550;28;20408;-79
2023/04/05 12:22:40;;;;;;;3.78;2.70;;;;;;;;;;5062892;28;20409;-79
2023/04/05 12:25:08;;;;;;;3.80;3.30;;;;;;;;;;5060961;28;20419;-80
2023/04/05 12:27:35;;;;;;;4.40;2.50;;;;;;;;;;5043763;28;20413;-79
2023/04/05 12:30:08;;;;;;;4.57;2.90;;;;;;;;;;5044524;28;20419;-79
2023/04/05 12:32:41;;;;;;;3.47;3.00;;;;;;;;;;5062824;28;20791;-79
2023/04/05 12:35:11;;;;;;;4.40;3.15;;;;;;;;;;5063625;28;20423;-79
2023/04/05 12:37:38;;;;;;;4.40;2.75;;;;;;;;;;5062036;28;20417;-80
2023/04/05 12:40:05;;;;;;;3.17;2.70;;;;;;;;;;5060373;28;20411;-79
2023/04/05 12:42:35;;;;;;;5.13;2.83;;;;;;;;;;5065153;28;20415;-80
2023/04/05 12:45:02;;;;;;;4.72;3.20;;;;;;;;;;5060104;28;20412;-79
2023/04/05 12:47:28;;;;;;;3.72;3.13;;;;;;;;;;5044614;28;20416;-79
2023/04/05 12:49:55;;;;;;;4.10;3.10;;;;;;;;;;5061290;28;20420;-79
2023/04/05 12:52:21;;;;;;;5.03;2.80;;;;;;;;;;5063828;28;20417;-79
2023/04/05 12:54:53;;;;;;;4.78;3.28;;;;;;;;;;5062048;28;20787;-80
2023/04/05 12:57:27;;;;;;;3.20;2.50;;;;;;;;;;5063374;28;20905;-79
2023/04/05 12:59:55;;;;;;;4.05;2.75;;;;;;;;;;5060313;28;20419;-81
2023/04/05 13:02:21;;;;;;;2.78;2.40;;;;;;;;;;5067653;28;20423;-79
2023/04/05 13:04:48;;;;;;;4.75;2.90;;;;;;;;;;5061927;28;20413;-79
2023/04/05 13:07:15;;;;;;;5.38;3.20;;;;;;;;;;5063439;28;20477;-79
2023/04/05 13:09:41;;;;;;;3.20;2.80;;;;;;;;;;5059080;28;20478;-79
2023/04/05 13:12:07;;;;;;;4.40;2.90;;;;;;;;;;5066555;28;20787;-82
2023/04/05 13:14:34;;;;;;;3.83;2.97;;;;;;;;;;5061912;28;20427;-79
2023/04/05 13:17:01;;;;;;;6.03;3.30;;;;;;;;;;5061739;28;20411;-79
2023/04/05 13:19:28;;;;;;;5.40;3.53;;;;;;;;;;5067190;28;20419;-79
2023/04/05 13:21:54;;;;;;;3.65;2.63;;;;;;;;;;5064420;28;20792;-80
2023/04/05 13:24:20;;;;;;;5.30;3.33;;;;;;;;;;5061760;28;20420;-79
2023/04/05 13:26:47;;;;;;;4.40;3.17;;;;;;;;;;5044673;28;20413;-79
2023/04/05 13:29:13;;;;;;;3.92;3.20;;;;;;;;;;5063612;28;20419;-79
2023/04/05 13:31:40;;;;;;;3.40;2.80;;;;;;;;;;5065421;28;20892;-79
2023/04/05 13:34:08;;;;;;;3.40;2.70;;;;;;;;;;5060338;28;20789;-81
2023/04/05 13:36:35;;;;;;;4.10;2.95;;;;;;;;;;5062165;28;20489;-81
2023/04/05 13:39:01;;;;;;;5.38;3.10;;;;;;;;;;5062874;28;20411;-79
2023/04/05 13:41:27;;;;;;;4.40;2.83;;;;;;;;;;5064952;28;20426;-80
2023/04/05 13:43:54;;;;;;;3.80;3.30;;;;;;;;;;5067217;28;20424;-79
2023/04/05 13:46:21;;;;;;;5.07;3.00;;;;;;;;;;5062310;28;20423;-80
2023/04/05 13:48:47;;;;;;;4.80;2.90;;;;;;;;;;5059602;28;20419;-80
2023/04/05 13:51:15;;;;;;;6.20;3.53;;;;;;;;;;5059965;28;20416;-79
2023/04/05 13:53:41;;;;;;;3.33;3.03;;;;;;;;;;5062774;28;20433;-79
2023/04/05 13:56:08;;;;;;;5.80;3.30;;;;;;;;;;5066989;28;20419;-81
2023/04/05 13:58:34;;;;;;;4.78;3.25;;;;;;;;;;5067309;28;20786;-81
2023/04/05 14:01:01;;;;;;;5.72;2.88;;;;;;;;;;5057469;28;20421;-81
2023/04/05 14:03:27;;;;;;;5.35;3.03;;;;;;;;;;5062737;28;20966;-79
2023/04/05 14:05:54;;;;;;;5.30;2.90;;;;;;;;;;5043979;28;20515;-79
2023/04/05 14:08:22;;;;;;;4.25;2.90;;;;;;;;;;5066372;28;20436;-79
2023/04/05 14:10:48;;;;;;;3.67;3.15;;;;;;;;;;5065413;28;20413;-80
2023/04/05 14:13:16;;;;;;;3.93;3.10;;;;;;;;;;5067382;28;20936;-79
2023/04/05 14:15:42;;;;;;;3.38;2.70;;;;;;;;;;5067145;28;20417;-82
2023/04/05 14:18:09;;;;;;;3.47;2.88;;;;;;;;;;5051816;28;20412;-80
2023/04/05 14:20:36;;;;;;;4.07;2.80;;;;;;;;;;5063836;28;20426;-79
2023/04/05 14:23:03;;;;;;;3.50;3.20;;;;;;;;;;5067348;28;20419;-79
2023/04/05 14:25:32;;;;;;;4.32;2.60;;;;;;;;;;5065103;28;20433;-81
2023/04/05 14:27:59;;;;;;;3.60;2.72;;;;;;;;;;5068332;28;20889;-79
2023/04/05 14:30:25;;;;;;;3.45;3.15;;;;;;;;;;5048324;28;20430;-80
2023/04/05 14:32:53;;;;;;;4.20;3.17;;;;;;;;;;5065892;28;20413;-80
2023/04/05 14:35:19;;;;;;;3.90;3.30;;;;;;;;;;5066557;28;20420;-80
2023/04/05 14:37:47;;;;;;;3.80;3.15;;;;;;;;;;5066784;28;20411;-79
2023/04/05 14:40:14;;;;;;;4.95;3.00;;;;;;;;;;5062957;28;20508;-80
2023/04/05 14:42:42;;;;;;;4.20;3.20;;;;;;;;;;5065245;28;20413;-80
2023/04/05 14:45:09;;;;;;;3.20;2.80;;;;;;;;;;5064053;28;20420;-80